createdAt,value
2017-10-07T04:52:47.447Z,99.99
2017-10-07T05:12:52.567Z,99.99
2017-10-07T06:34:30.464Z,99.99
2017-10-07T07:12:48.365Z,99.99
2017-10-07T07:18:11.189Z,99.99
2017-10-07T07:23:29.889Z,99.99
2017-10-07T07:36:35.551Z,99.99
2017-10-07T07:42:34.931Z,99.99
2017-10-07T07:45:30.266Z,99.99
2017-10-07T07:46:30.111Z,99.99
2017-10-07T07:49:54.008Z,99.99
2017-10-07T07:50:51.672Z,99.94
2017-10-07T07:51:51.389Z,99.99
2017-10-07T07:57:56.776Z,99.99
2017-10-07T07:58:57.293Z,99.65
2017-10-07T07:59:57.176Z,99.99
2017-10-07T08:00:57.108Z,98.60
2017-10-07T08:04:43.342Z,96.27
2017-10-07T08:05:53.271Z,96.27
2017-10-07T08:07:38.494Z,95.61
2017-10-07T08:08:38.886Z,96.65
2017-10-07T08:09:38.323Z,98.18
2017-10-07T08:10:49.389Z,97.65
2017-10-07T08:11:38.787Z,97.27
2017-10-07T08:12:38.168Z,98.99
2017-10-07T08:15:32.460Z,98.99
2017-10-07T08:16:31.805Z,98.60
2017-10-07T08:17:32.458Z,98.51
2017-10-07T08:22:56.868Z,99.99
2017-10-07T08:24:06.956Z,99.65
2017-10-07T08:25:50.327Z,98.79
2017-10-07T08:26:49.252Z,99.37
2017-10-07T08:28:43.219Z,99.55
2017-10-07T08:29:43.585Z,99.84
2017-10-07T08:31:37.373Z,99.60
2017-10-07T08:32:44.205Z,99.99
2017-10-07T08:34:30.489Z,99.99
2017-10-07T08:35:30.357Z,99.99
2017-10-07T08:36:31.346Z,99.99
2017-10-07T08:37:30.298Z,99.99
2017-10-07T08:38:30.240Z,98.46
2017-10-07T08:39:30.212Z,98.08
2017-10-07T08:40:29.663Z,98.41
2017-10-07T08:41:30.044Z,99.27
2017-10-07T08:42:29.661Z,99.99
2017-10-07T08:43:30.044Z,99.37
2017-10-07T08:44:30.339Z,99.89
2017-10-07T08:45:29.464Z,99.75
2017-10-07T08:46:30.385Z,99.99
2017-10-07T08:47:30.384Z,99.99
2017-10-07T08:48:29.426Z,99.55
2017-10-07T08:49:29.816Z,99.99
2017-10-07T08:50:29.057Z,99.99
2017-10-07T08:51:28.794Z,99.65
2017-10-07T08:52:28.782Z,98.99
2017-10-07T08:53:28.823Z,99.18
2017-10-07T08:54:28.757Z,99.65
2017-10-07T08:55:28.673Z,99.13
2017-10-07T08:56:28.589Z,99.27
2017-10-07T08:57:28.591Z,99.55
2017-10-07T08:58:28.627Z,99.27
2017-10-07T08:59:28.668Z,99.13
2017-10-07T09:00:28.448Z,99.04
2017-10-07T09:01:28.460Z,98.27
2017-10-07T09:02:28.563Z,97.22
2017-10-07T09:03:28.287Z,95.75
2017-10-07T09:04:28.388Z,94.74
2017-10-07T09:05:28.295Z,94.51
2017-10-07T09:06:28.286Z,95.65
2017-10-07T09:07:28.226Z,95.22
2017-10-07T09:08:28.190Z,94.36
2017-10-07T09:09:28.147Z,94.56
2017-10-07T09:10:28.074Z,94.74
2017-10-07T09:11:27.983Z,93.31
2017-10-07T09:12:27.980Z,92.55
2017-10-07T09:13:27.964Z,94.17
2017-10-07T09:14:27.937Z,93.41
2017-10-07T09:15:27.909Z,94.07
2017-10-07T09:16:27.846Z,92.55
2017-10-07T09:17:27.774Z,92.17
2017-10-07T09:18:27.805Z,92.36
2017-10-07T09:19:27.778Z,92.36
2017-10-07T09:20:27.658Z,92.60
2017-10-07T09:21:27.740Z,93.27
2017-10-07T09:22:27.885Z,93.79
2017-10-07T09:23:27.620Z,93.32
2017-10-07T09:24:27.586Z,94.08
2017-10-07T09:25:27.561Z,92.74
2017-10-07T09:26:27.602Z,93.98
2017-10-07T09:27:27.461Z,93.03
2017-10-07T09:28:27.430Z,92.84
2017-10-07T09:29:27.476Z,92.65
2017-10-07T09:30:27.310Z,93.32
2017-10-07T09:31:27.306Z,92.65
2017-10-07T09:32:27.233Z,92.69
2017-10-07T09:33:27.324Z,92.74
2017-10-07T09:34:27.146Z,91.98
2017-10-07T09:35:27.308Z,91.50
2017-10-07T09:38:46.289Z,89.54
2017-10-07T09:39:45.926Z,88.88
2017-10-07T09:40:46.352Z,88.31
2017-10-07T09:41:45.836Z,87.54
2017-10-07T09:42:46.356Z,87.59
2017-10-07T09:43:45.760Z,87.40
2017-10-07T09:44:45.866Z,87.11
2017-10-07T09:45:45.693Z,86.10
2017-10-07T09:46:45.146Z,84.20
2017-10-07T09:47:45.818Z,83.14
2017-10-07T09:48:45.062Z,84.58
2017-10-07T09:49:46.356Z,83.53
2017-10-07T09:50:45.000Z,83.87
2017-10-07T09:51:46.366Z,83.96
2017-10-07T09:52:44.913Z,84.06
2017-10-07T09:53:45.242Z,84.06
2017-10-07T09:54:44.957Z,83.67
2017-10-07T09:55:44.679Z,84.16
2017-10-07T10:01:00.925Z,77.50
2017-10-07T10:02:02.393Z,76.73
2017-10-07T10:03:01.371Z,77.26
2017-10-07T11:24:43.691Z,75.76
2017-10-07T11:25:44.335Z,75.03
2017-10-07T11:26:44.668Z,74.17
2017-10-07T11:30:09.545Z,72.83
2017-10-07T11:31:06.084Z,71.84
2017-10-07T11:32:06.488Z,73.47
2017-10-07T11:33:05.540Z,74.32
2017-10-07T11:34:07.021Z,74.52
2017-10-07T11:37:44.808Z,74.38
2017-10-07T11:40:27.988Z,74.86
2017-10-07T11:41:27.933Z,75.05
2017-10-07T11:42:28.706Z,75.57
2017-10-07T11:43:28.389Z,76.14
2017-10-07T11:44:27.472Z,76.33
2017-10-07T11:45:27.818Z,74.13
2017-10-07T11:46:28.696Z,73.94
2017-10-07T11:47:27.203Z,74.52
2017-10-07T11:48:38.203Z,74.80
2017-10-07T11:53:23.194Z,73.37
2017-10-07T11:54:21.439Z,73.85
2017-10-07T11:55:22.486Z,74.13
2017-10-07T11:56:20.829Z,74.23
2017-10-07T11:57:20.819Z,73.85
2017-10-07T11:58:20.800Z,73.75
2017-10-07T11:59:21.612Z,73.37
2017-10-07T12:02:06.358Z,75.57
2017-10-07T12:03:01.759Z,74.04
2017-10-07T12:04:02.192Z,74.23
2017-10-07T12:05:02.150Z,74.13
2017-10-07T12:06:02.638Z,73.56
2017-10-07T12:07:02.871Z,74.67
2017-10-07T12:08:02.334Z,74.19
2017-10-07T12:09:02.307Z,74.19
2017-10-07T12:10:01.474Z,74.57
2017-10-07T12:11:02.848Z,75.05
2017-10-07T12:12:01.340Z,75.53
2017-10-07T12:13:02.845Z,76.10
2017-10-07T12:14:01.124Z,75.15
2017-10-07T12:15:04.912Z,74.86
2017-10-07T12:16:00.792Z,74.48
2017-10-07T12:17:00.761Z,75.91
2017-10-07T12:18:00.727Z,76.67
2017-10-07T12:19:00.703Z,76.57
2017-10-07T12:20:00.780Z,76.96
2017-10-07T12:21:00.581Z,76.10
2017-10-07T12:22:00.702Z,74.96
2017-10-07T12:23:00.640Z,74.96
2017-10-07T12:24:00.792Z,74.86
2017-10-07T12:25:00.672Z,76.14
2017-10-07T12:26:00.486Z,74.77
2017-10-07T12:27:00.353Z,74.23
2017-10-07T12:28:00.391Z,75.85
2017-10-07T12:29:00.468Z,74.71
2017-10-07T12:30:00.398Z,74.61
2017-10-07T12:31:00.380Z,75.85
2017-10-07T12:32:00.302Z,74.90
2017-10-07T12:33:00.188Z,75.28
2017-10-07T12:34:00.113Z,74.42
2017-10-07T12:37:28.555Z,72.80
2017-10-07T12:38:24.363Z,72.99
2017-10-07T12:39:23.332Z,73.56
2017-10-07T12:40:23.906Z,73.56
2017-10-07T12:41:23.846Z,73.05
2017-10-07T12:42:23.503Z,73.43
2017-10-07T12:43:23.182Z,74.48
2017-10-07T12:44:23.900Z,73.85
2017-10-07T12:45:23.113Z,72.99
2017-10-07T12:46:23.089Z,73.28
2017-10-07T12:47:23.519Z,73.18
2017-10-07T12:48:23.511Z,72.42
2017-10-07T12:49:23.843Z,72.80
2017-10-07T12:50:23.434Z,73.56
2017-10-07T12:51:22.862Z,73.43
2017-10-07T12:52:22.830Z,74.90
2017-10-07T12:53:22.733Z,74.99
2017-10-07T12:54:22.518Z,74.99
2017-10-07T12:55:22.325Z,73.81
2017-10-07T12:56:22.528Z,73.28
2017-10-07T12:57:22.362Z,74.10
2017-10-07T12:58:22.411Z,74.52
2017-10-07T12:59:22.294Z,74.71
2017-10-07T13:00:22.131Z,74.61
2017-10-07T13:01:22.158Z,74.42
2017-10-07T13:02:22.035Z,74.01
2017-10-07T13:03:21.967Z,75.76
2017-10-07T13:04:21.975Z,74.71
2017-10-07T13:05:21.974Z,74.80
2017-10-07T13:06:21.929Z,74.77
2017-10-07T13:07:21.937Z,76.01
2017-10-07T13:08:21.820Z,75.91
2017-10-07T13:09:21.841Z,74.96
2017-10-07T13:10:21.767Z,74.48
2017-10-07T13:11:21.742Z,73.43
2017-10-07T13:12:21.812Z,74.52
2017-10-07T13:13:21.690Z,74.77
2017-10-07T13:14:21.581Z,74.71
2017-10-07T13:15:21.562Z,75.85
2017-10-07T13:16:21.527Z,74.71
2017-10-07T13:17:21.527Z,75.85
2017-10-07T13:18:21.512Z,76.04
2017-10-07T13:19:21.396Z,75.37
2017-10-07T13:20:21.368Z,74.42
2017-10-07T13:21:21.391Z,74.13
2017-10-07T13:22:21.345Z,74.32
2017-10-07T13:23:21.291Z,75.57
2017-10-07T13:24:21.366Z,75.37
2017-10-07T13:25:21.164Z,75.66
2017-10-07T13:26:21.163Z,75.62
2017-10-07T13:27:21.069Z,76.48
2017-10-07T13:28:21.060Z,77.15
2017-10-07T13:29:21.054Z,75.05
2017-10-07T13:30:21.068Z,75.05
2017-10-07T13:31:20.999Z,75.53
2017-10-07T13:32:21.010Z,75.53
2017-10-07T13:33:20.840Z,75.15
2017-10-07T13:34:21.035Z,75.05
2017-10-07T13:35:20.836Z,76.67
2017-10-07T13:36:20.774Z,75.53
2017-10-07T13:37:20.806Z,76.10
2017-10-07T13:38:20.758Z,75.81
2017-10-07T13:39:20.617Z,75.81
2017-10-07T13:40:20.705Z,75.91
2017-10-07T13:41:20.626Z,77.15
2017-10-07T13:42:20.605Z,77.53
2017-10-07T13:43:20.571Z,76.77
2017-10-07T13:44:20.491Z,76.10
2017-10-07T13:45:20.464Z,75.72
2017-10-07T13:46:20.406Z,77.34
2017-10-07T13:47:20.371Z,77.44
2017-10-07T13:48:20.399Z,76.67
2017-10-07T13:49:20.251Z,78.10
2017-10-07T13:50:20.235Z,78.39
2017-10-07T13:51:20.242Z,78.92
2017-10-07T13:52:20.165Z,81.02
2017-10-07T13:53:20.228Z,79.40
2017-10-07T13:54:20.076Z,78.73
2017-10-07T13:55:20.100Z,78.64
2017-10-07T13:56:20.014Z,78.16
2017-10-07T13:57:20.026Z,78.16
2017-10-07T13:58:19.921Z,80.64
2017-10-07T13:59:19.902Z,79.68
2017-10-07T14:00:19.916Z,81.30
2017-10-07T14:01:19.791Z,81.21
2017-10-07T14:02:19.855Z,80.16
2017-10-07T14:03:19.764Z,80.35
2017-10-07T14:04:19.668Z,79.21
2017-10-07T14:05:19.699Z,80.83
2017-10-07T14:06:19.634Z,81.30
2017-10-07T14:07:19.560Z,80.44
2017-10-07T14:08:19.575Z,80.44
2017-10-07T14:09:19.505Z,80.73
2017-10-07T14:10:19.521Z,80.44
2017-10-07T14:11:19.454Z,80.54
2017-10-07T14:12:19.429Z,81.88
2017-10-07T14:13:19.443Z,82.54
2017-10-07T14:14:19.359Z,81.97
2017-10-07T14:15:19.376Z,82.73
2017-10-07T14:16:19.278Z,81.97
2017-10-07T14:17:19.351Z,83.40
2017-10-07T14:18:19.143Z,83.69
2017-10-07T14:19:19.933Z,83.36
2017-10-07T14:20:19.172Z,84.12
2017-10-07T14:21:19.073Z,82.69
2017-10-07T14:22:19.014Z,82.35
2017-10-07T14:23:19.019Z,84.50
2017-10-07T14:24:18.951Z,84.79
2017-10-07T14:25:19.035Z,84.79
2017-10-07T14:26:18.858Z,85.21
2017-10-07T14:27:18.859Z,84.45
2017-10-07T14:28:18.874Z,85.93
2017-10-07T14:29:18.767Z,86.69
2017-10-07T14:30:18.739Z,86.88
2017-10-07T14:31:18.663Z,86.41
2017-10-07T14:32:18.736Z,87.27
2017-10-07T14:33:18.591Z,86.98
2017-10-07T14:34:18.617Z,86.88
2017-10-07T14:35:18.507Z,88.12
2017-10-07T14:36:18.612Z,88.03
2017-10-07T14:37:18.443Z,88.22
2017-10-07T14:38:18.529Z,88.22
2017-10-07T14:39:18.735Z,89.17
2017-10-07T14:40:18.771Z,90.12
2017-10-07T14:41:18.380Z,91.94
2017-10-07T14:42:18.262Z,89.61
2017-10-07T14:43:18.298Z,89.79
2017-10-07T14:44:18.257Z,91.13
2017-10-07T14:45:21.364Z,90.56
2017-10-07T14:49:40.522Z,91.41
2017-10-07T14:50:37.810Z,92.55
2017-10-07T14:51:37.780Z,92.94
2017-10-07T14:52:38.247Z,92.94
2017-10-07T14:53:38.089Z,93.03
2017-10-07T14:54:37.667Z,92.94
2017-10-07T14:55:37.706Z,92.55
2017-10-07T14:56:38.021Z,93.32
2017-10-07T14:57:53.958Z,92.08
2017-10-07T14:58:38.729Z,92.27
2017-10-07T14:59:37.979Z,93.89
2017-10-07T15:05:47.875Z,91.99
2017-10-07T15:06:45.025Z,91.41
2017-10-07T15:07:44.467Z,93.13
2017-10-07T15:08:44.981Z,92.94
2017-10-07T15:09:46.007Z,92.94
2017-10-07T15:10:45.662Z,94.17
2017-10-07T15:11:45.670Z,94.27
2017-10-07T15:12:45.655Z,94.27
2017-10-07T15:13:44.738Z,95.12
2017-10-07T15:14:45.317Z,93.22
2017-10-07T15:15:44.724Z,92.65
2017-10-07T15:16:45.125Z,93.79
2017-10-07T15:17:44.133Z,94.65
2017-10-07T15:18:45.623Z,93.98
2017-10-07T15:19:44.568Z,95.03
2017-10-07T15:20:43.997Z,95.22
2017-10-07T15:21:44.494Z,95.36
2017-10-07T15:22:45.518Z,95.17
2017-10-07T15:23:44.362Z,94.70
2017-10-07T15:24:44.338Z,95.41
2017-10-07T15:25:43.816Z,96.41
2017-10-07T15:26:45.349Z,96.12
2017-10-07T15:27:43.729Z,95.75
2017-10-07T15:28:43.471Z,95.84
2017-10-07T15:29:43.324Z,96.70
2017-10-07T15:30:43.173Z,95.65
2017-10-07T15:31:43.131Z,97.17
2017-10-07T15:32:43.038Z,96.89
2017-10-07T15:33:42.999Z,96.51
2017-10-07T15:34:42.958Z,95.65
2017-10-07T15:35:42.934Z,94.79
2017-10-07T15:36:42.959Z,94.79
2017-10-07T15:37:42.863Z,94.03
2017-10-07T15:38:42.860Z,95.27
2017-10-07T15:39:42.848Z,94.32
2017-10-07T15:40:42.753Z,94.79
2017-10-07T15:41:42.697Z,94.89
2017-10-07T15:42:42.665Z,95.65
2017-10-07T15:43:42.703Z,96.03
2017-10-07T15:44:42.604Z,94.70
2017-10-07T15:45:42.545Z,93.74
2017-10-07T15:46:42.520Z,93.65
2017-10-07T15:47:42.514Z,93.65
2017-10-07T15:48:42.427Z,93.18
2017-10-07T15:49:42.409Z,94.70
2017-10-07T15:50:42.381Z,94.89
2017-10-07T15:51:42.325Z,93.55
2017-10-07T15:52:42.374Z,92.13
2017-10-07T15:53:42.295Z,91.65
2017-10-07T15:54:42.210Z,91.84
2017-10-07T15:55:42.111Z,90.51
2017-10-07T15:56:42.091Z,89.08
2017-10-07T15:57:42.116Z,89.51
2017-10-07T15:58:42.031Z,89.08
2017-10-07T15:59:42.061Z,89.61
2017-10-07T16:00:41.930Z,89.03
2017-10-07T16:01:41.934Z,89.03
2017-10-07T16:02:41.907Z,88.46
2017-10-07T16:03:41.842Z,88.18
2017-10-07T16:04:41.811Z,88.27
2017-10-07T16:05:41.761Z,88.18
2017-10-07T16:06:41.728Z,88.08
2017-10-07T16:07:41.773Z,89.70
2017-10-07T16:08:41.625Z,87.65
2017-10-07T16:09:41.708Z,87.51
2017-10-07T16:10:41.604Z,86.75
2017-10-07T16:11:41.671Z,87.51
2017-10-07T16:12:41.645Z,87.41
2017-10-07T16:13:41.429Z,87.51
2017-10-07T16:14:41.496Z,88.46
2017-10-07T16:15:41.416Z,87.46
2017-10-07T16:16:41.327Z,86.55
2017-10-07T16:17:41.362Z,87.51
2017-10-07T16:18:41.227Z,87.23
2017-10-07T16:19:41.278Z,86.75
2017-10-07T16:20:41.136Z,87.13
2017-10-07T16:21:41.336Z,86.90
2017-10-07T16:22:41.254Z,88.04
2017-10-07T16:23:41.063Z,89.65
2017-10-07T16:24:41.089Z,89.18
2017-10-07T16:25:40.995Z,88.99
2017-10-07T16:26:40.947Z,89.18
2017-10-07T16:27:40.901Z,89.08
2017-10-07T16:28:40.938Z,88.70
2017-10-07T16:29:41.008Z,88.99
2017-10-07T16:30:40.724Z,89.27
2017-10-07T16:31:40.700Z,89.84
2017-10-07T16:32:40.673Z,90.03
2017-10-07T16:33:40.643Z,89.84
2017-10-07T16:34:40.646Z,88.60
2017-10-07T16:35:40.622Z,89.08
2017-10-07T16:36:40.580Z,89.56
2017-10-07T16:37:40.492Z,88.70
2017-10-07T16:38:40.420Z,89.27
2017-10-07T16:39:40.358Z,89.65
2017-10-07T16:40:40.461Z,88.89
2017-10-07T16:41:40.344Z,89.18
2017-10-07T16:42:40.261Z,89.84
2017-10-07T16:43:40.282Z,90.13
2017-10-07T16:44:40.290Z,89.65
2017-10-07T16:45:40.164Z,89.08
2017-10-07T16:46:40.206Z,89.65
2017-10-07T16:47:40.296Z,89.56
2017-10-07T16:48:40.058Z,88.70
2017-10-07T16:49:40.064Z,90.42
2017-10-07T16:50:39.934Z,90.13
2017-10-07T16:51:39.942Z,89.75
2017-10-07T16:52:39.861Z,89.84
2017-10-07T16:53:39.936Z,90.70
2017-10-07T16:54:39.770Z,90.80
2017-10-07T16:55:39.816Z,91.84
2017-10-07T16:56:39.731Z,90.42
2017-10-07T16:57:39.698Z,91.46
2017-10-07T16:58:39.598Z,90.13
2017-10-07T16:59:39.818Z,90.51
2017-10-07T17:00:39.690Z,90.42
2017-10-07T17:01:39.532Z,89.84
2017-10-07T17:02:39.442Z,89.47
2017-10-07T17:03:39.543Z,89.65
2017-10-07T17:04:39.396Z,89.08
2017-10-07T17:05:39.535Z,88.60
2017-10-07T17:06:39.363Z,89.65
2017-10-07T17:07:39.483Z,88.99
2017-10-07T17:08:39.254Z,89.84
2017-10-07T17:09:39.233Z,90.13
2017-10-07T17:10:39.264Z,90.13
2017-10-07T17:11:39.151Z,89.56
2017-10-07T17:12:39.052Z,89.84
2017-10-07T17:13:39.032Z,90.32
2017-10-07T17:14:39.027Z,89.94
2017-10-07T17:15:38.938Z,89.75
2017-10-07T17:16:38.976Z,89.94
2017-10-07T17:17:39.008Z,90.32
2017-10-07T17:18:38.781Z,91.84
2017-10-07T17:19:38.827Z,92.22
2017-10-07T17:20:38.831Z,92.41
2017-10-07T17:21:38.858Z,92.22
2017-10-07T17:22:38.689Z,91.94
2017-10-07T17:23:38.690Z,91.94
2017-10-07T17:24:38.541Z,92.41
2017-10-07T17:25:38.517Z,91.65
2017-10-07T17:26:38.524Z,91.94
2017-10-07T17:27:38.568Z,92.22
2017-10-07T17:28:38.544Z,92.79
2017-10-07T17:29:38.346Z,92.60
2017-10-07T17:30:38.359Z,91.46
2017-10-07T17:31:38.382Z,91.65
2017-10-07T17:32:38.203Z,92.51
2017-10-07T17:33:38.194Z,91.94
2017-10-07T17:34:38.146Z,92.13
2017-10-07T17:35:38.103Z,92.60
2017-10-07T17:36:38.092Z,92.51
2017-10-07T17:37:37.996Z,92.60
2017-10-07T17:38:38.116Z,92.70
2017-10-07T17:39:37.992Z,92.60
2017-10-07T17:40:37.953Z,92.41
2017-10-07T17:41:37.866Z,93.27
2017-10-07T17:42:37.874Z,92.79
2017-10-07T17:43:37.787Z,93.65
2017-10-07T17:44:37.825Z,94.18
2017-10-07T17:45:37.732Z,94.74
2017-10-07T17:46:37.661Z,94.18
2017-10-07T17:47:37.615Z,94.93
2017-10-07T17:48:37.589Z,94.65
2017-10-07T17:49:37.617Z,94.84
2017-10-07T17:50:37.592Z,94.27
2017-10-07T17:51:37.467Z,94.65
2017-10-07T17:52:37.401Z,94.37
2017-10-07T17:53:37.492Z,95.22
2017-10-07T17:54:37.339Z,95.32
2017-10-07T17:55:37.275Z,94.65
2017-10-07T17:56:37.242Z,95.51
2017-10-07T17:57:37.186Z,95.51
2017-10-07T17:58:37.142Z,95.70
2017-10-07T17:59:37.138Z,95.60
2017-10-07T18:00:37.101Z,95.98
2017-10-07T18:01:37.052Z,95.41
2017-10-07T18:02:37.067Z,95.60
2017-10-07T18:03:36.954Z,95.32
2017-10-07T18:04:36.969Z,94.65
2017-10-07T18:05:36.869Z,93.98
2017-10-07T18:06:36.837Z,94.74
2017-10-07T18:07:36.820Z,95.60
2017-10-07T18:08:36.922Z,96.17
2017-10-07T18:09:36.711Z,94.84
2017-10-07T18:10:36.725Z,94.27
2017-10-07T18:11:36.627Z,94.56
2017-10-07T18:12:36.608Z,93.18
2017-10-07T18:13:36.544Z,92.70
2017-10-07T18:14:36.559Z,92.89
2017-10-07T18:15:36.545Z,93.18
2017-10-07T18:16:36.466Z,92.22
2017-10-07T18:17:36.427Z,92.41
2017-10-07T18:18:36.365Z,91.94
2017-10-07T18:19:36.352Z,92.22
2017-10-07T18:20:36.292Z,91.75
2017-10-07T18:21:36.230Z,92.13
2017-10-07T18:22:36.178Z,92.03
2017-10-07T18:23:36.429Z,90.89
2017-10-07T18:24:36.271Z,92.22
2017-10-07T18:25:36.140Z,91.94
2017-10-07T18:26:36.059Z,92.51
2017-10-07T18:27:36.112Z,92.70
2017-10-07T18:28:35.996Z,92.51
2017-10-07T18:29:36.147Z,92.51
2017-10-07T18:30:35.854Z,90.70
2017-10-07T18:31:35.829Z,89.94
2017-10-07T18:32:35.953Z,89.84
2017-10-07T18:33:35.756Z,89.94
2017-10-07T18:34:35.776Z,90.51
2017-10-07T18:35:35.655Z,91.17
2017-10-07T18:36:37.268Z,90.22
2017-10-07T18:37:35.583Z,90.22
2017-10-07T18:38:35.534Z,90.51
2017-10-07T18:39:35.552Z,89.84
2017-10-07T18:40:35.527Z,90.32
2017-10-07T18:41:35.522Z,89.47
2017-10-07T18:42:35.372Z,89.56
2017-10-07T18:43:37.298Z,89.94
2017-10-07T18:44:35.275Z,90.70
2017-10-07T18:45:35.290Z,90.13
2017-10-07T18:46:35.393Z,89.65
2017-10-07T18:47:35.232Z,91.75
2017-10-07T18:48:35.207Z,90.99
2017-10-07T18:49:35.145Z,90.22
2017-10-07T18:50:35.207Z,90.03
2017-10-07T18:51:35.031Z,90.03
2017-10-07T18:52:34.953Z,89.47
2017-10-07T18:53:35.066Z,89.27
2017-10-07T18:54:36.878Z,89.37
2017-10-07T18:55:34.908Z,88.56
2017-10-07T18:56:34.824Z,90.32
2017-10-07T18:57:34.763Z,89.75
2017-10-07T18:58:34.721Z,90.42
2017-10-07T18:59:34.685Z,89.56
2017-10-07T19:00:34.660Z,89.47
2017-10-07T19:01:34.613Z,88.70
2017-10-07T19:02:34.605Z,88.89
2017-10-07T19:03:34.541Z,89.70
2017-10-07T19:04:34.513Z,89.51
2017-10-07T19:05:34.516Z,89.98
2017-10-07T19:06:34.457Z,90.08
2017-10-07T19:07:34.366Z,89.70
2017-10-07T19:08:34.378Z,89.27
2017-10-07T19:09:34.278Z,89.47
2017-10-07T19:10:34.289Z,89.13
2017-10-07T19:11:34.281Z,88.23
2017-10-07T19:12:34.187Z,88.56
2017-10-07T19:13:34.182Z,88.51
2017-10-07T19:14:34.116Z,89.27
2017-10-07T19:15:34.062Z,89.70
2017-10-07T19:16:34.086Z,90.22
2017-10-07T19:17:34.004Z,90.75
2017-10-07T19:18:33.979Z,90.99
2017-10-07T19:19:33.859Z,92.22
2017-10-07T19:20:33.890Z,92.51
2017-10-07T19:21:33.813Z,92.32
2017-10-07T19:22:33.770Z,91.84
2017-10-07T19:23:33.715Z,92.60
2017-10-07T19:24:33.671Z,94.51
2017-10-07T19:25:33.637Z,94.51
2017-10-07T19:26:33.601Z,94.70
2017-10-07T19:27:33.553Z,94.98
2017-10-07T19:28:33.560Z,95.36
2017-10-07T19:29:33.524Z,96.22
2017-10-07T19:30:33.434Z,96.74
2017-10-07T19:31:33.431Z,96.31
2017-10-07T19:32:33.428Z,96.51
2017-10-07T19:33:33.429Z,96.94
2017-10-07T19:34:33.371Z,98.27
2017-10-07T19:35:33.300Z,98.36
2017-10-07T19:36:33.280Z,98.46
2017-10-07T19:37:33.189Z,98.27
2017-10-07T19:38:33.183Z,99.12
2017-10-07T19:39:33.160Z,99.98
2017-10-07T19:40:33.113Z,99.02
2017-10-07T19:41:33.190Z,99.02
2017-10-07T19:42:33.119Z,99.99
2017-10-07T19:43:33.111Z,99.99
2017-10-07T19:44:33.032Z,99.99
2017-10-07T19:45:33.104Z,99.99
2017-10-07T19:46:33.300Z,99.99
2017-10-07T19:50:58.060Z,99.99
2017-10-07T20:17:40.612Z,99.99
2017-10-07T20:18:37.609Z,99.99
2017-10-07T20:19:37.295Z,99.99
